sensor_id;sensor_type;location;lat;lon;timestamp;P1;durP1;ratioP1;P2;durP2;ratioP2
56541;SDS011;42438;53.174;6.730;2022-09-12T00:01:17;21.55;;;11.50;;
56541;SDS011;42438;53.174;6.730;2022-09-12T00:03:50;21.17;;;11.05;;
56541;SDS011;42438;53.174;6.730;2022-09-12T00:06:32;20.92;;;11.68;;
56541;SDS011;42438;53.174;6.730;2022-09-12T00:09:06;16.50;;;9.45;;
56541;SDS011;42438;53.174;6.730;2022-09-12T00:14:11;11.88;;;8.68;;
56541;SDS011;42438;53.174;6.730;2022-09-12T00:16:44;15.27;;;8.85;;
56541;SDS011;42438;53.174;6.730;2022-09-12T00:19:15;14.70;;;9.15;;
56541;SDS011;42438;53.174;6.730;2022-09-12T00:21:45;17.92;;;8.70;;
56541;SDS011;42438;53.174;6.730;2022-09-12T00:24:16;13.45;;;8.88;;
56541;SDS011;42438;53.174;6.730;2022-09-12T00:26:47;13.18;;;8.43;;
56541;SDS011;42438;53.174;6.730;2022-09-12T00:29:19;10.80;;;8.18;;
56541;SDS011;42438;53.174;6.730;2022-09-12T00:31:50;12.23;;;7.97;;
56541;SDS011;42438;53.174;6.730;2022-09-12T00:34:21;12.40;;;8.32;;
56541;SDS011;42438;53.174;6.730;2022-09-12T00:36:52;11.55;;;7.88;;
56541;SDS011;42438;53.174;6.730;2022-09-12T00:39:23;9.80;;;7.57;;
56541;SDS011;42438;53.174;6.730;2022-09-12T00:41:53;10.07;;;7.13;;
56541;SDS011;42438;53.174;6.730;2022-09-12T00:52:17;11.45;;;8.40;;
56541;SDS011;42438;53.174;6.730;2022-09-12T00:55:04;12.27;;;8.13;;
56541;SDS011;42438;53.174;6.730;2022-09-12T00:57:41;13.07;;;7.78;;
56541;SDS011;42438;53.174;6.730;2022-09-12T01:00:24;13.25;;;9.23;;
56541;SDS011;42438;53.174;6.730;2022-09-12T01:03:01;11.90;;;8.82;;
56541;SDS011;42438;53.174;6.730;2022-09-12T01:05:38;13.48;;;8.98;;
56541;SDS011;42438;53.174;6.730;2022-09-12T01:08:13;13.25;;;9.07;;
56541;SDS011;42438;53.174;6.730;2022-09-12T01:10:45;14.52;;;9.32;;
56541;SDS011;42438;53.174;6.730;2022-09-12T01:13:17;13.18;;;9.38;;
56541;SDS011;42438;53.174;6.730;2022-09-12T01:15:48;15.27;;;10.07;;
56541;SDS011;42438;53.174;6.730;2022-09-12T01:24:33;14.38;;;9.68;;
56541;SDS011;42438;53.174;6.730;2022-09-12T01:27:47;16.90;;;10.05;;
56541;SDS011;42438;53.174;6.730;2022-09-12T01:41:41;15.70;;;10.52;;
56541;SDS011;42438;53.174;6.730;2022-09-12T01:44:13;15.77;;;10.48;;
56541;SDS011;42438;53.174;6.730;2022-09-12T01:46:54;15.85;;;10.68;;
56541;SDS011;42438;53.174;6.730;2022-09-12T01:49:59;15.95;;;11.18;;
56541;SDS011;42438;53.174;6.730;2022-09-12T01:52:37;16.67;;;11.15;;
56541;SDS011;42438;53.174;6.730;2022-09-12T01:58:04;16.67;;;11.48;;
56541;SDS011;42438;53.174;6.730;2022-09-12T02:00:44;18.38;;;12.30;;
56541;SDS011;42438;53.174;6.730;2022-09-12T02:03:37;17.20;;;12.20;;
56541;SDS011;42438;53.174;6.730;2022-09-12T02:06:15;16.65;;;12.60;;
56541;SDS011;42438;53.174;6.730;2022-09-12T02:09:00;18.92;;;12.57;;
56541;SDS011;42438;53.174;6.730;2022-09-12T02:11:40;17.15;;;12.63;;
56541;SDS011;42438;53.174;6.730;2022-09-12T02:14:23;18.05;;;12.55;;
56541;SDS011;42438;53.174;6.730;2022-09-12T02:16:58;17.25;;;12.20;;
56541;SDS011;42438;53.174;6.730;2022-09-12T02:19:35;18.40;;;13.20;;
56541;SDS011;42438;53.174;6.730;2022-09-12T02:22:11;20.85;;;14.18;;
56541;SDS011;42438;53.174;6.730;2022-09-12T02:24:47;23.48;;;13.52;;
56541;SDS011;42438;53.174;6.730;2022-09-12T02:27:24;21.08;;;14.13;;
56541;SDS011;42438;53.174;6.730;2022-09-12T02:29:59;22.15;;;14.50;;
56541;SDS011;42438;53.174;6.730;2022-09-12T02:32:37;23.17;;;16.05;;
56541;SDS011;42438;53.174;6.730;2022-09-12T02:35:38;21.83;;;14.60;;
56541;SDS011;42438;53.174;6.730;2022-09-12T02:38:24;22.27;;;15.45;;
56541;SDS011;42438;53.174;6.730;2022-09-12T02:41:02;23.48;;;15.52;;
56541;SDS011;42438;53.174;6.730;2022-09-12T02:43:33;24.88;;;16.05;;
56541;SDS011;42438;53.174;6.730;2022-09-12T02:46:07;24.98;;;15.13;;
56541;SDS011;42438;53.174;6.730;2022-09-12T02:48:43;24.83;;;15.32;;
56541;SDS011;42438;53.174;6.730;2022-09-12T02:51:14;27.55;;;16.05;;
56541;SDS011;42438;53.174;6.730;2022-09-12T02:53:45;25.25;;;16.85;;
56541;SDS011;42438;53.174;6.730;2022-09-12T02:56:17;23.80;;;15.45;;
56541;SDS011;42438;53.174;6.730;2022-09-12T02:58:54;25.42;;;16.60;;
56541;SDS011;42438;53.174;6.730;2022-09-12T03:07:34;27.00;;;17.15;;
56541;SDS011;42438;53.174;6.730;2022-09-12T03:10:24;26.95;;;17.38;;
56541;SDS011;42438;53.174;6.730;2022-09-12T03:13:22;26.40;;;16.42;;
56541;SDS011;42438;53.174;6.730;2022-09-12T03:18:50;24.40;;;17.13;;
56541;SDS011;42438;53.174;6.730;2022-09-12T03:21:32;27.35;;;16.67;;
56541;SDS011;42438;53.174;6.730;2022-09-12T03:24:11;26.92;;;16.85;;
56541;SDS011;42438;53.174;6.730;2022-09-12T03:27:14;25.10;;;17.10;;
56541;SDS011;42438;53.174;6.730;2022-09-12T03:29:47;24.27;;;16.92;;
56541;SDS011;42438;53.174;6.730;2022-09-12T03:32:19;26.77;;;18.30;;
56541;SDS011;42438;53.174;6.730;2022-09-12T03:35:08;24.08;;;16.30;;
56541;SDS011;42438;53.174;6.730;2022-09-12T03:37:41;25.70;;;16.73;;
56541;SDS011;42438;53.174;6.730;2022-09-12T03:40:12;28.98;;;19.35;;
56541;SDS011;42438;53.174;6.730;2022-09-12T03:42:42;26.13;;;17.00;;
56541;SDS011;42438;53.174;6.730;2022-09-12T03:45:13;31.15;;;18.15;;
56541;SDS011;42438;53.174;6.730;2022-09-12T03:47:45;29.00;;;18.05;;
56541;SDS011;42438;53.174;6.730;2022-09-12T03:50:16;27.77;;;18.30;;
56541;SDS011;42438;53.174;6.730;2022-09-12T03:52:47;28.60;;;19.02;;
56541;SDS011;42438;53.174;6.730;2022-09-12T03:55:17;31.98;;;19.67;;
56541;SDS011;42438;53.174;6.730;2022-09-12T03:57:51;32.35;;;19.95;;
56541;SDS011;42438;53.174;6.730;2022-09-12T04:00:22;30.83;;;19.30;;
56541;SDS011;42438;53.174;6.730;2022-09-12T04:02:54;31.08;;;19.33;;
56541;SDS011;42438;53.174;6.730;2022-09-12T04:05:26;30.77;;;20.00;;
56541;SDS011;42438;53.174;6.730;2022-09-12T04:07:56;35.25;;;21.27;;
56541;SDS011;42438;53.174;6.730;2022-09-12T04:10:27;29.00;;;17.65;;
56541;SDS011;42438;53.174;6.730;2022-09-12T04:12:57;31.60;;;20.05;;
56541;SDS011;42438;53.174;6.730;2022-09-12T04:15:28;33.03;;;19.55;;
56541;SDS011;42438;53.174;6.730;2022-09-12T04:17:59;34.25;;;20.02;;
56541;SDS011;42438;53.174;6.730;2022-09-12T04:20:29;33.65;;;19.45;;
56541;SDS011;42438;53.174;6.730;2022-09-12T04:23:00;34.60;;;19.90;;
56541;SDS011;42438;53.174;6.730;2022-09-12T04:25:31;32.08;;;18.98;;
56541;SDS011;42438;53.174;6.730;2022-09-12T04:28:01;31.38;;;18.65;;
56541;SDS011;42438;53.174;6.730;2022-09-12T04:30:32;30.60;;;18.63;;
56541;SDS011;42438;53.174;6.730;2022-09-12T04:33:03;32.22;;;18.88;;
56541;SDS011;42438;53.174;6.730;2022-09-12T04:35:34;29.67;;;18.92;;
56541;SDS011;42438;53.174;6.730;2022-09-12T04:38:05;34.15;;;19.92;;
56541;SDS011;42438;53.174;6.730;2022-09-12T04:40:36;29.92;;;17.52;;
56541;SDS011;42438;53.174;6.730;2022-09-12T04:43:07;31.25;;;19.50;;
56541;SDS011;42438;53.174;6.730;2022-09-12T04:45:38;35.60;;;19.33;;
56541;SDS011;42438;53.174;6.730;2022-09-12T04:48:09;33.17;;;18.73;;
56541;SDS011;42438;53.174;6.730;2022-09-12T04:50:39;37.08;;;20.83;;
56541;SDS011;42438;53.174;6.730;2022-09-12T04:53:10;33.25;;;19.05;;
56541;SDS011;42438;53.174;6.730;2022-09-12T04:55:41;34.50;;;20.17;;
56541;SDS011;42438;53.174;6.730;2022-09-12T04:58:11;35.25;;;20.35;;
56541;SDS011;42438;53.174;6.730;2022-09-12T05:00:42;40.15;;;21.92;;
56541;SDS011;42438;53.174;6.730;2022-09-12T05:03:12;38.53;;;21.17;;
56541;SDS011;42438;53.174;6.730;2022-09-12T05:05:43;33.08;;;19.45;;
56541;SDS011;42438;53.174;6.730;2022-09-12T05:08:14;37.35;;;20.85;;
56541;SDS011;42438;53.174;6.730;2022-09-12T05:10:44;36.42;;;20.35;;
56541;SDS011;42438;53.174;6.730;2022-09-12T05:13:15;33.35;;;18.80;;
56541;SDS011;42438;53.174;6.730;2022-09-12T05:15:58;39.22;;;22.05;;
56541;SDS011;42438;53.174;6.730;2022-09-12T05:18:31;36.03;;;19.60;;
56541;SDS011;42438;53.174;6.730;2022-09-12T05:21:05;37.05;;;21.65;;
56541;SDS011;42438;53.174;6.730;2022-09-12T05:23:37;36.85;;;19.75;;
56541;SDS011;42438;53.174;6.730;2022-09-12T05:26:09;36.10;;;19.98;;
56541;SDS011;42438;53.174;6.730;2022-09-12T05:28:42;40.03;;;21.90;;
56541;SDS011;42438;53.174;6.730;2022-09-12T05:31:18;36.42;;;20.65;;
56541;SDS011;42438;53.174;6.730;2022-09-12T05:33:50;41.05;;;21.20;;
56541;SDS011;42438;53.174;6.730;2022-09-12T05:36:26;42.10;;;22.75;;
56541;SDS011;42438;53.174;6.730;2022-09-12T05:39:00;41.03;;;22.60;;
56541;SDS011;42438;53.174;6.730;2022-09-12T05:41:32;43.42;;;23.98;;
56541;SDS011;42438;53.174;6.730;2022-09-12T05:44:05;45.65;;;25.13;;
56541;SDS011;42438;53.174;6.730;2022-09-12T05:46:41;44.30;;;23.77;;
56541;SDS011;42438;53.174;6.730;2022-09-12T05:49:13;38.78;;;22.52;;
56541;SDS011;42438;53.174;6.730;2022-09-12T05:51:44;43.30;;;22.95;;
56541;SDS011;42438;53.174;6.730;2022-09-12T05:54:16;38.95;;;20.77;;
56541;SDS011;42438;53.174;6.730;2022-09-12T05:56:49;39.33;;;21.38;;
56541;SDS011;42438;53.174;6.730;2022-09-12T05:59:20;41.25;;;21.42;;
56541;SDS011;42438;53.174;6.730;2022-09-12T06:01:52;38.75;;;22.15;;
56541;SDS011;42438;53.174;6.730;2022-09-12T06:04:23;40.85;;;22.20;;
56541;SDS011;42438;53.174;6.730;2022-09-12T06:06:54;38.78;;;21.27;;
56541;SDS011;42438;53.174;6.730;2022-09-12T06:09:25;40.67;;;22.33;;
56541;SDS011;42438;53.174;6.730;2022-09-12T06:11:57;39.50;;;21.48;;
56541;SDS011;42438;53.174;6.730;2022-09-12T06:14:27;40.03;;;21.27;;
56541;SDS011;42438;53.174;6.730;2022-09-12T06:16:58;40.30;;;21.50;;
56541;SDS011;42438;53.174;6.730;2022-09-12T06:19:29;37.50;;;21.55;;
56541;SDS011;42438;53.174;6.730;2022-09-12T06:21:59;39.22;;;21.40;;
56541;SDS011;42438;53.174;6.730;2022-09-12T06:24:30;38.08;;;21.90;;
56541;SDS011;42438;53.174;6.730;2022-09-12T06:27:01;36.88;;;20.48;;
56541;SDS011;42438;53.174;6.730;2022-09-12T06:29:32;36.60;;;20.75;;
56541;SDS011;42438;53.174;6.730;2022-09-12T06:32:02;41.55;;;22.85;;
56541;SDS011;42438;53.174;6.730;2022-09-12T06:34:33;41.25;;;21.38;;
56541;SDS011;42438;53.174;6.730;2022-09-12T06:37:05;39.80;;;21.45;;
56541;SDS011;42438;53.174;6.730;2022-09-12T06:39:36;40.85;;;22.00;;
56541;SDS011;42438;53.174;6.730;2022-09-12T06:42:07;41.65;;;22.38;;
56541;SDS011;42438;53.174;6.730;2022-09-12T06:44:37;38.80;;;21.30;;
56541;SDS011;42438;53.174;6.730;2022-09-12T06:47:08;39.45;;;22.27;;
56541;SDS011;42438;53.174;6.730;2022-09-12T06:49:39;41.58;;;23.35;;
56541;SDS011;42438;53.174;6.730;2022-09-12T06:52:09;50.50;;;24.13;;
56541;SDS011;42438;53.174;6.730;2022-09-12T06:54:40;41.40;;;22.95;;
56541;SDS011;42438;53.174;6.730;2022-09-12T06:57:11;48.28;;;23.55;;
56541;SDS011;42438;53.174;6.730;2022-09-12T06:59:42;44.63;;;22.60;;
56541;SDS011;42438;53.174;6.730;2022-09-12T07:02:12;51.20;;;23.88;;
56541;SDS011;42438;53.174;6.730;2022-09-12T07:04:43;44.88;;;24.38;;
56541;SDS011;42438;53.174;6.730;2022-09-12T07:07:13;45.17;;;22.88;;
56541;SDS011;42438;53.174;6.730;2022-09-12T07:09:44;44.20;;;24.70;;
56541;SDS011;42438;53.174;6.730;2022-09-12T07:12:15;46.95;;;23.02;;
56541;SDS011;42438;53.174;6.730;2022-09-12T07:14:45;38.45;;;22.40;;
56541;SDS011;42438;53.174;6.730;2022-09-12T07:17:16;42.00;;;23.20;;
56541;SDS011;42438;53.174;6.730;2022-09-12T07:19:47;48.13;;;23.98;;
56541;SDS011;42438;53.174;6.730;2022-09-12T07:22:18;42.17;;;23.15;;
56541;SDS011;42438;53.174;6.730;2022-09-12T07:24:48;47.50;;;23.80;;
56541;SDS011;42438;53.174;6.730;2022-09-12T07:27:19;43.33;;;23.20;;
56541;SDS011;42438;53.174;6.730;2022-09-12T07:29:50;49.35;;;24.40;;
56541;SDS011;42438;53.174;6.730;2022-09-12T07:32:20;49.85;;;24.98;;
56541;SDS011;42438;53.174;6.730;2022-09-12T07:34:52;51.70;;;24.92;;
56541;SDS011;42438;53.174;6.730;2022-09-12T07:37:22;49.95;;;24.27;;
56541;SDS011;42438;53.174;6.730;2022-09-12T07:39:53;47.85;;;24.38;;
56541;SDS011;42438;53.174;6.730;2022-09-12T07:42:24;49.20;;;25.88;;
56541;SDS011;42438;53.174;6.730;2022-09-12T07:44:55;48.83;;;24.67;;
56541;SDS011;42438;53.174;6.730;2022-09-12T07:47:25;48.67;;;24.40;;
56541;SDS011;42438;53.174;6.730;2022-09-12T07:49:56;48.05;;;23.15;;
56541;SDS011;42438;53.174;6.730;2022-09-12T07:52:27;48.97;;;23.95;;
56541;SDS011;42438;53.174;6.730;2022-09-12T07:54:58;50.95;;;23.63;;
56541;SDS011;42438;53.174;6.730;2022-09-12T07:57:29;44.80;;;23.52;;
56541;SDS011;42438;53.174;6.730;2022-09-12T07:59:59;45.30;;;23.60;;
56541;SDS011;42438;53.174;6.730;2022-09-12T08:02:30;46.92;;;23.33;;
56541;SDS011;42438;53.174;6.730;2022-09-12T08:05:01;43.83;;;23.70;;
56541;SDS011;42438;53.174;6.730;2022-09-12T08:07:31;44.80;;;22.85;;
56541;SDS011;42438;53.174;6.730;2022-09-12T08:10:03;52.15;;;24.08;;
56541;SDS011;42438;53.174;6.730;2022-09-12T08:12:35;48.33;;;24.75;;
56541;SDS011;42438;53.174;6.730;2022-09-12T08:15:05;47.22;;;23.45;;
56541;SDS011;42438;53.174;6.730;2022-09-12T08:17:37;48.05;;;23.77;;
56541;SDS011;42438;53.174;6.730;2022-09-12T08:20:08;43.30;;;23.42;;
56541;SDS011;42438;53.174;6.730;2022-09-12T08:22:38;46.75;;;23.63;;
56541;SDS011;42438;53.174;6.730;2022-09-12T08:25:09;47.80;;;25.23;;
56541;SDS011;42438;53.174;6.730;2022-09-12T08:27:40;42.00;;;22.95;;
56541;SDS011;42438;53.174;6.730;2022-09-12T08:30:12;43.85;;;23.10;;
56541;SDS011;42438;53.174;6.730;2022-09-12T08:32:43;38.15;;;19.83;;
56541;SDS011;42438;53.174;6.730;2022-09-12T08:35:13;38.35;;;21.50;;
56541;SDS011;42438;53.174;6.730;2022-09-12T08:37:44;37.42;;;21.55;;
56541;SDS011;42438;53.174;6.730;2022-09-12T08:40:15;36.20;;;19.55;;
56541;SDS011;42438;53.174;6.730;2022-09-12T08:45:30;32.25;;;19.08;;
56541;SDS011;42438;53.174;6.730;2022-09-12T08:48:02;33.20;;;18.02;;
56541;SDS011;42438;53.174;6.730;2022-09-12T08:50:35;31.17;;;18.48;;
56541;SDS011;42438;53.174;6.730;2022-09-12T08:53:11;33.00;;;17.52;;
56541;SDS011;42438;53.174;6.730;2022-09-12T08:58:24;30.63;;;16.65;;
56541;SDS011;42438;53.174;6.730;2022-09-12T09:01:00;30.90;;;16.33;;
56541;SDS011;42438;53.174;6.730;2022-09-12T09:15:46;31.48;;;16.15;;
56541;SDS011;42438;53.174;6.730;2022-09-12T09:18:13;32.65;;;15.45;;
56541;SDS011;42438;53.174;6.730;2022-09-12T09:20:55;29.50;;;15.88;;
56541;SDS011;42438;53.174;6.730;2022-09-12T09:24:04;27.60;;;16.65;;
56541;SDS011;42438;53.174;6.730;2022-09-12T09:26:46;31.95;;;16.75;;
56541;SDS011;42438;53.174;6.730;2022-09-12T09:29:26;32.00;;;16.08;;
56541;SDS011;42438;53.174;6.730;2022-09-12T09:32:08;32.40;;;17.40;;
56541;SDS011;42438;53.174;6.730;2022-09-12T09:34:47;32.42;;;17.55;;
56541;SDS011;42438;53.174;6.730;2022-09-12T09:37:28;33.47;;;17.15;;
56541;SDS011;42438;53.174;6.730;2022-09-12T09:45:42;33.53;;;16.17;;
56541;SDS011;42438;53.174;6.730;2022-09-12T09:48:23;33.88;;;18.17;;
56541;SDS011;42438;53.174;6.730;2022-09-12T09:50:58;31.77;;;18.42;;
56541;SDS011;42438;53.174;6.730;2022-09-12T09:53:44;35.70;;;18.42;;
56541;SDS011;42438;53.174;6.730;2022-09-12T09:59:14;39.03;;;19.67;;
56541;SDS011;42438;53.174;6.730;2022-09-12T10:01:56;37.67;;;19.58;;
56541;SDS011;42438;53.174;6.730;2022-09-12T10:04:55;34.40;;;19.38;;
56541;SDS011;42438;53.174;6.730;2022-09-12T10:07:27;37.50;;;19.35;;
56541;SDS011;42438;53.174;6.730;2022-09-12T10:10:05;36.20;;;19.75;;
56541;SDS011;42438;53.174;6.730;2022-09-12T10:12:47;41.25;;;20.13;;
56541;SDS011;42438;53.174;6.730;2022-09-12T10:15:19;39.80;;;20.35;;
56541;SDS011;42438;53.174;6.730;2022-09-12T10:17:51;34.80;;;18.65;;
56541;SDS011;42438;53.174;6.730;2022-09-12T10:23:17;39.83;;;20.17;;
56541;SDS011;42438;53.174;6.730;2022-09-12T10:25:55;40.05;;;20.80;;
56541;SDS011;42438;53.174;6.730;2022-09-12T10:28:31;39.42;;;20.02;;
56541;SDS011;42438;53.174;6.730;2022-09-12T10:31:08;37.47;;;18.83;;
56541;SDS011;42438;53.174;6.730;2022-09-12T10:33:45;35.28;;;17.95;;
56541;SDS011;42438;53.174;6.730;2022-09-12T10:36:22;36.97;;;19.52;;
56541;SDS011;42438;53.174;6.730;2022-09-12T10:38:54;31.88;;;17.38;;
56541;SDS011;42438;53.174;6.730;2022-09-12T10:41:36;27.88;;;15.43;;
56541;SDS011;42438;53.174;6.730;2022-09-12T10:44:23;26.55;;;14.93;;
56541;SDS011;42438;53.174;6.730;2022-09-12T10:46:56;26.15;;;13.98;;
56541;SDS011;42438;53.174;6.730;2022-09-12T10:49:29;27.90;;;14.60;;
56541;SDS011;42438;53.174;6.730;2022-09-12T10:52:15;28.42;;;15.52;;
56541;SDS011;42438;53.174;6.730;2022-09-12T10:54:46;29.17;;;15.43;;
56541;SDS011;42438;53.174;6.730;2022-09-12T11:00:11;24.35;;;13.73;;
56541;SDS011;42438;53.174;6.730;2022-09-12T11:02:50;23.98;;;13.30;;
56541;SDS011;42438;53.174;6.730;2022-09-12T11:14:20;22.95;;;12.45;;
56541;SDS011;42438;53.174;6.730;2022-09-12T11:17:22;32.35;;;14.10;;
56541;SDS011;42438;53.174;6.730;2022-09-12T11:25:50;29.00;;;13.73;;
56541;SDS011;42438;53.174;6.730;2022-09-12T11:34:22;24.83;;;13.57;;
56541;SDS011;42438;53.174;6.730;2022-09-12T11:40:47;25.50;;;12.65;;
56541;SDS011;42438;53.174;6.730;2022-09-12T11:43:06;21.23;;;12.38;;
56541;SDS011;42438;53.174;6.730;2022-09-12T11:45:42;25.48;;;13.05;;
56541;SDS011;42438;53.174;6.730;2022-09-12T11:51:32;19.33;;;11.55;;
56541;SDS011;42438;53.174;6.730;2022-09-12T11:57:15;21.65;;;12.02;;
56541;SDS011;42438;53.174;6.730;2022-09-12T12:02:26;13.32;;;8.02;;
56541;SDS011;42438;53.174;6.730;2022-09-12T12:07:51;14.18;;;7.78;;
56541;SDS011;42438;53.174;6.730;2022-09-12T12:10:43;13.50;;;7.93;;
56541;SDS011;42438;53.174;6.730;2022-09-12T12:13:27;11.98;;;8.02;;
56541;SDS011;42438;53.174;6.730;2022-09-12T12:18:36;12.60;;;8.23;;
56541;SDS011;42438;53.174;6.730;2022-09-12T12:21:42;16.30;;;8.75;;
56541;SDS011;42438;53.174;6.730;2022-09-12T12:24:16;14.10;;;8.90;;
56541;SDS011;42438;53.174;6.730;2022-09-12T12:34:40;14.18;;;8.68;;
56541;SDS011;42438;53.174;6.730;2022-09-12T12:52:53;16.48;;;8.40;;
56541;SDS011;42438;53.174;6.730;2022-09-12T12:55:36;20.08;;;8.95;;
56541;SDS011;42438;53.174;6.730;2022-09-12T13:01:12;20.20;;;9.77;;
56541;SDS011;42438;53.174;6.730;2022-09-12T13:03:53;23.15;;;9.63;;
56541;SDS011;42438;53.174;6.730;2022-09-12T13:06:29;13.77;;;8.55;;
56541;SDS011;42438;53.174;6.730;2022-09-12T13:09:49;13.98;;;8.45;;
56541;SDS011;42438;53.174;6.730;2022-09-12T13:23:03;9.68;;;6.20;;
56541;SDS011;42438;53.174;6.730;2022-09-12T13:25:34;15.45;;;7.63;;
56541;SDS011;42438;53.174;6.730;2022-09-12T13:30:42;11.50;;;6.80;;
56541;SDS011;42438;53.174;6.730;2022-09-12T13:33:18;12.50;;;7.82;;
56541;SDS011;42438;53.174;6.730;2022-09-12T13:35:57;13.10;;;7.40;;
56541;SDS011;42438;53.174;6.730;2022-09-12T13:44:31;12.27;;;6.55;;
56541;SDS011;42438;53.174;6.730;2022-09-12T13:47:14;12.85;;;7.30;;
56541;SDS011;42438;53.174;6.730;2022-09-12T13:49:51;12.00;;;6.85;;
56541;SDS011;42438;53.174;6.730;2022-09-12T13:52:23;11.73;;;6.38;;
56541;SDS011;42438;53.174;6.730;2022-09-12T13:54:57;9.73;;;6.47;;
56541;SDS011;42438;53.174;6.730;2022-09-12T14:00:11;9.93;;;6.72;;
56541;SDS011;42438;53.174;6.730;2022-09-12T14:02:49;12.80;;;6.32;;
56541;SDS011;42438;53.174;6.730;2022-09-12T14:05:39;10.57;;;6.50;;
56541;SDS011;42438;53.174;6.730;2022-09-12T14:08:13;9.88;;;6.03;;
56541;SDS011;42438;53.174;6.730;2022-09-12T14:10:44;12.75;;;6.80;;
56541;SDS011;42438;53.174;6.730;2022-09-12T14:13:19;12.93;;;6.05;;
56541;SDS011;42438;53.174;6.730;2022-09-12T14:15:53;9.98;;;6.45;;
56541;SDS011;42438;53.174;6.730;2022-09-12T14:18:27;13.57;;;6.05;;
56541;SDS011;42438;53.174;6.730;2022-09-12T14:21:07;9.23;;;5.90;;
56541;SDS011;42438;53.174;6.730;2022-09-12T14:23:41;9.73;;;5.78;;
56541;SDS011;42438;53.174;6.730;2022-09-12T14:26:14;13.93;;;6.50;;
56541;SDS011;42438;53.174;6.730;2022-09-12T14:28:51;10.20;;;5.30;;
56541;SDS011;42438;53.174;6.730;2022-09-12T14:31:23;9.88;;;5.90;;
56541;SDS011;42438;53.174;6.730;2022-09-12T14:36:50;8.90;;;5.05;;
56541;SDS011;42438;53.174;6.730;2022-09-12T14:42:02;8.27;;;4.80;;
56541;SDS011;42438;53.174;6.730;2022-09-12T14:44:57;7.60;;;4.43;;
56541;SDS011;42438;53.174;6.730;2022-09-12T14:47:34;6.93;;;4.65;;
56541;SDS011;42438;53.174;6.730;2022-09-12T14:50:15;7.75;;;4.70;;
56541;SDS011;42438;53.174;6.730;2022-09-12T14:53:06;8.93;;;4.75;;
56541;SDS011;42438;53.174;6.730;2022-09-12T14:55:52;10.05;;;4.90;;
56541;SDS011;42438;53.174;6.730;2022-09-12T14:58:28;8.65;;;5.03;;
56541;SDS011;42438;53.174;6.730;2022-09-12T15:01:00;7.30;;;4.60;;
56541;SDS011;42438;53.174;6.730;2022-09-12T15:03:48;6.57;;;4.35;;
56541;SDS011;42438;53.174;6.730;2022-09-12T15:08:59;8.52;;;4.97;;
56541;SDS011;42438;53.174;6.730;2022-09-12T15:11:34;7.90;;;4.78;;
56541;SDS011;42438;53.174;6.730;2022-09-12T15:14:05;7.82;;;4.82;;
56541;SDS011;42438;53.174;6.730;2022-09-12T15:16:42;11.57;;;6.10;;
56541;SDS011;42438;53.174;6.730;2022-09-12T15:19:13;7.65;;;4.90;;
56541;SDS011;42438;53.174;6.730;2022-09-12T15:21:44;8.00;;;5.45;;
56541;SDS011;42438;53.174;6.730;2022-09-12T15:24:14;10.02;;;6.03;;
56541;SDS011;42438;53.174;6.730;2022-09-12T15:26:45;10.10;;;6.43;;
56541;SDS011;42438;53.174;6.730;2022-09-12T15:29:16;8.15;;;6.10;;
56541;SDS011;42438;53.174;6.730;2022-09-12T15:31:46;10.73;;;6.10;;
56541;SDS011;42438;53.174;6.730;2022-09-12T15:34:20;12.88;;;6.05;;
56541;SDS011;42438;53.174;6.730;2022-09-12T15:36:51;9.98;;;5.88;;
56541;SDS011;42438;53.174;6.730;2022-09-12T15:39:21;12.15;;;6.55;;
56541;SDS011;42438;53.174;6.730;2022-09-12T15:41:52;8.77;;;5.65;;
56541;SDS011;42438;53.174;6.730;2022-09-12T15:44:23;9.35;;;6.10;;
56541;SDS011;42438;53.174;6.730;2022-09-12T15:46:53;8.05;;;5.60;;
56541;SDS011;42438;53.174;6.730;2022-09-12T15:49:24;8.15;;;5.15;;
56541;SDS011;42438;53.174;6.730;2022-09-12T15:51:54;9.10;;;5.63;;
56541;SDS011;42438;53.174;6.730;2022-09-12T15:54:25;8.20;;;5.38;;
56541;SDS011;42438;53.174;6.730;2022-09-12T15:56:56;7.00;;;4.95;;
56541;SDS011;42438;53.174;6.730;2022-09-12T15:59:26;7.22;;;5.32;;
56541;SDS011;42438;53.174;6.730;2022-09-12T16:01:57;6.68;;;5.00;;
56541;SDS011;42438;53.174;6.730;2022-09-12T16:04:28;6.13;;;4.57;;
56541;SDS011;42438;53.174;6.730;2022-09-12T16:06:59;8.98;;;4.57;;
56541;SDS011;42438;53.174;6.730;2022-09-12T16:09:30;7.50;;;5.13;;
56541;SDS011;42438;53.174;6.730;2022-09-12T16:12:00;9.57;;;5.07;;
56541;SDS011;42438;53.174;6.730;2022-09-12T16:14:31;9.15;;;5.28;;
56541;SDS011;42438;53.174;6.730;2022-09-12T16:17:02;8.43;;;4.53;;
56541;SDS011;42438;53.174;6.730;2022-09-12T16:19:32;6.05;;;4.45;;
56541;SDS011;42438;53.174;6.730;2022-09-12T16:22:03;7.43;;;4.22;;
56541;SDS011;42438;53.174;6.730;2022-09-12T16:24:34;7.53;;;4.00;;
56541;SDS011;42438;53.174;6.730;2022-09-12T16:27:04;5.95;;;4.00;;
56541;SDS011;42438;53.174;6.730;2022-09-12T16:29:35;6.78;;;4.13;;
56541;SDS011;42438;53.174;6.730;2022-09-12T16:32:06;7.35;;;3.78;;
56541;SDS011;42438;53.174;6.730;2022-09-12T16:34:36;6.60;;;3.67;;
56541;SDS011;42438;53.174;6.730;2022-09-12T16:37:07;7.68;;;3.80;;
56541;SDS011;42438;53.174;6.730;2022-09-12T16:39:38;5.45;;;3.40;;
56541;SDS011;42438;53.174;6.730;2022-09-12T16:42:09;5.32;;;3.47;;
56541;SDS011;42438;53.174;6.730;2022-09-12T16:44:39;8.02;;;3.58;;
56541;SDS011;42438;53.174;6.730;2022-09-12T16:47:10;7.43;;;3.70;;
56541;SDS011;42438;53.174;6.730;2022-09-12T16:49:41;7.40;;;3.60;;
56541;SDS011;42438;53.174;6.730;2022-09-12T16:52:11;10.95;;;3.88;;
56541;SDS011;42438;53.174;6.730;2022-09-12T16:54:45;8.57;;;4.07;;
56541;SDS011;42438;53.174;6.730;2022-09-12T16:57:16;11.25;;;3.95;;
56541;SDS011;42438;53.174;6.730;2022-09-12T16:59:46;7.32;;;3.88;;
56541;SDS011;42438;53.174;6.730;2022-09-12T17:02:17;7.20;;;3.92;;
56541;SDS011;42438;53.174;6.730;2022-09-12T17:04:47;8.70;;;3.50;;
56541;SDS011;42438;53.174;6.730;2022-09-12T17:07:18;9.80;;;4.05;;
56541;SDS011;42438;53.174;6.730;2022-09-12T17:09:49;4.63;;;3.40;;
56541;SDS011;42438;53.174;6.730;2022-09-12T17:12:20;5.53;;;3.22;;
56541;SDS011;42438;53.174;6.730;2022-09-12T17:14:51;6.63;;;3.50;;
56541;SDS011;42438;53.174;6.730;2022-09-12T17:17:21;5.60;;;3.45;;
56541;SDS011;42438;53.174;6.730;2022-09-12T17:19:52;8.02;;;3.90;;
56541;SDS011;42438;53.174;6.730;2022-09-12T17:22:22;7.03;;;3.42;;
56541;SDS011;42438;53.174;6.730;2022-09-12T17:24:53;6.40;;;3.92;;
56541;SDS011;42438;53.174;6.730;2022-09-12T17:27:24;9.80;;;4.30;;
56541;SDS011;42438;53.174;6.730;2022-09-12T17:29:54;20.08;;;4.50;;
56541;SDS011;42438;53.174;6.730;2022-09-12T17:32:25;6.07;;;3.90;;
56541;SDS011;42438;53.174;6.730;2022-09-12T17:34:56;7.60;;;3.97;;
56541;SDS011;42438;53.174;6.730;2022-09-12T17:37:26;11.90;;;4.30;;
56541;SDS011;42438;53.174;6.730;2022-09-12T17:39:57;10.57;;;4.47;;
56541;SDS011;42438;53.174;6.730;2022-09-12T17:42:28;9.60;;;4.15;;
56541;SDS011;42438;53.174;6.730;2022-09-12T17:44:58;9.05;;;4.38;;
56541;SDS011;42438;53.174;6.730;2022-09-12T17:47:29;10.57;;;4.10;;
56541;SDS011;42438;53.174;6.730;2022-09-12T17:49:59;5.60;;;3.60;;
56541;SDS011;42438;53.174;6.730;2022-09-12T17:52:30;7.00;;;3.97;;
56541;SDS011;42438;53.174;6.730;2022-09-12T17:55:01;7.85;;;3.85;;
56541;SDS011;42438;53.174;6.730;2022-09-12T17:57:32;6.20;;;4.25;;